sensor_id;sensor_type;location;lat;lon;timestamp;temperature;humidity
23124;DHT22;11731;48.592;8.858;2024-02-26T00:08:01;8.60;99.90
23124;DHT22;11731;48.592;8.858;2024-02-26T00:10:31;8.60;99.90
23124;DHT22;11731;48.592;8.858;2024-02-26T00:13:00;9.00;99.90
23124;DHT22;11731;48.592;8.858;2024-02-26T00:15:35;8.80;99.90
23124;DHT22;11731;48.592;8.858;2024-02-26T00:18:02;8.60;99.90
23124;DHT22;11731;48.592;8.858;2024-02-26T00:20:29;8.80;99.90
23124;DHT22;11731;48.592;8.858;2024-02-26T00:22:56;9.10;99.90
23124;DHT22;11731;48.592;8.858;2024-02-26T00:28:34;8.40;99.90
23124;DHT22;11731;48.592;8.858;2024-02-26T00:31:02;7.90;99.90
23124;DHT22;11731;48.592;8.858;2024-02-26T00:33:40;8.00;99.90
23124;DHT22;11731;48.592;8.858;2024-02-26T00:36:07;7.70;99.90
23124;DHT22;11731;48.592;8.858;2024-02-26T00:38:35;7.60;99.90
23124;DHT22;11731;48.592;8.858;2024-02-26T00:41:02;7.80;99.90
23124;DHT22;11731;48.592;8.858;2024-02-26T00:43:29;8.20;99.90
23124;DHT22;11731;48.592;8.858;2024-02-26T00:45:57;8.50;99.90
23124;DHT22;11731;48.592;8.858;2024-02-26T00:48:26;8.90;99.90
23124;DHT22;11731;48.592;8.858;2024-02-26T00:51:07;9.10;99.90
23124;DHT22;11731;48.592;8.858;2024-02-26T00:54:00;9.00;99.90
23124;DHT22;11731;48.592;8.858;2024-02-26T00:56:37;8.90;99.90
23124;DHT22;11731;48.592;8.858;2024-02-26T00:59:04;8.60;99.90
23124;DHT22;11731;48.592;8.858;2024-02-26T01:01:33;8.40;99.90
23124;DHT22;11731;48.592;8.858;2024-02-26T01:04:00;8.50;99.90
23124;DHT22;11731;48.592;8.858;2024-02-26T01:06:27;8.60;99.90
23124;DHT22;11731;48.592;8.858;2024-02-26T01:08:54;8.60;99.90
23124;DHT22;11731;48.592;8.858;2024-02-26T01:11:20;8.90;99.90
23124;DHT22;11731;48.592;8.858;2024-02-26T01:13:49;9.00;99.90
23124;DHT22;11731;48.592;8.858;2024-02-26T01:16:22;9.20;99.90
23124;DHT22;11731;48.592;8.858;2024-02-26T01:18:51;9.30;99.90
23124;DHT22;11731;48.592;8.858;2024-02-26T01:21:22;9.50;99.90
23124;DHT22;11731;48.592;8.858;2024-02-26T01:23:49;9.60;99.90
23124;DHT22;11731;48.592;8.858;2024-02-26T01:26:16;9.70;99.90
23124;DHT22;11731;48.592;8.858;2024-02-26T01:28:43;9.60;99.90
23124;DHT22;11731;48.592;8.858;2024-02-26T01:31:10;9.50;99.90
23124;DHT22;11731;48.592;8.858;2024-02-26T01:33:45;9.50;99.90
23124;DHT22;11731;48.592;8.858;2024-02-26T01:36:14;9.50;99.90
23124;DHT22;11731;48.592;8.858;2024-02-26T01:38:42;9.50;99.90
23124;DHT22;11731;48.592;8.858;2024-02-26T01:41:09;9.60;99.90
23124;DHT22;11731;48.592;8.858;2024-02-26T01:43:36;9.60;99.90
23124;DHT22;11731;48.592;8.858;2024-02-26T01:46:03;9.50;99.90
23124;DHT22;11731;48.592;8.858;2024-02-26T01:48:30;9.40;99.90
23124;DHT22;11731;48.592;8.858;2024-02-26T01:50:57;9.30;99.90
23124;DHT22;11731;48.592;8.858;2024-02-26T01:53:26;8.90;99.90
23124;DHT22;11731;48.592;8.858;2024-02-26T01:55:58;8.60;99.90
23124;DHT22;11731;48.592;8.858;2024-02-26T01:58:25;8.10;99.90
23124;DHT22;11731;48.592;8.858;2024-02-26T02:00:52;7.60;99.90
23124;DHT22;11731;48.592;8.858;2024-02-26T02:03:19;7.90;99.90
23124;DHT22;11731;48.592;8.858;2024-02-26T02:05:46;8.20;99.90
23124;DHT22;11731;48.592;8.858;2024-02-26T02:08:13;8.60;99.90
23124;DHT22;11731;48.592;8.858;2024-02-26T02:10:42;9.00;99.90
23124;DHT22;11731;48.592;8.858;2024-02-26T02:13:09;9.40;99.90
23124;DHT22;11731;48.592;8.858;2024-02-26T02:15:36;9.50;99.90
23124;DHT22;11731;48.592;8.858;2024-02-26T02:18:24;9.70;99.90
23124;DHT22;11731;48.592;8.858;2024-02-26T02:24:03;9.70;99.90
23124;DHT22;11731;48.592;8.858;2024-02-26T02:26:30;9.60;99.90
23124;DHT22;11731;48.592;8.858;2024-02-26T02:28:58;9.00;99.90
23124;DHT22;11731;48.592;8.858;2024-02-26T02:31:25;8.70;99.90
23124;DHT22;11731;48.592;8.858;2024-02-26T02:33:55;8.70;99.90
23124;DHT22;11731;48.592;8.858;2024-02-26T02:36:22;8.60;99.90
23124;DHT22;11731;48.592;8.858;2024-02-26T02:38:49;8.90;99.90
23124;DHT22;11731;48.592;8.858;2024-02-26T02:41:25;8.50;99.90
23124;DHT22;11731;48.592;8.858;2024-02-26T02:43:59;8.60;99.90
23124;DHT22;11731;48.592;8.858;2024-02-26T02:49:08;8.00;99.90
23124;DHT22;11731;48.592;8.858;2024-02-26T02:51:55;8.20;99.90
23124;DHT22;11731;48.592;8.858;2024-02-26T02:54:23;8.50;99.90
23124;DHT22;11731;48.592;8.858;2024-02-26T02:57:05;8.90;99.90
23124;DHT22;11731;48.592;8.858;2024-02-26T03:02:56;9.00;99.90
23124;DHT22;11731;48.592;8.858;2024-02-26T03:05:56;8.90;99.90
23124;DHT22;11731;48.592;8.858;2024-02-26T03:08:24;8.60;99.90
23124;DHT22;11731;48.592;8.858;2024-02-26T03:10:51;8.90;99.90
23124;DHT22;11731;48.592;8.858;2024-02-26T03:13:21;9.30;99.90
23124;DHT22;11731;48.592;8.858;2024-02-26T03:15:48;9.60;99.90
23124;DHT22;11731;48.592;8.858;2024-02-26T03:45:34;9.70;99.90
23124;DHT22;11731;48.592;8.858;2024-02-26T03:53:49;10.00;99.90
23124;DHT22;11731;48.592;8.858;2024-02-26T03:56:19;10.10;99.90
23124;DHT22;11731;48.592;8.858;2024-02-26T03:58:46;10.10;99.90
23124;DHT22;11731;48.592;8.858;2024-02-26T04:03:31;10.20;99.90
23124;DHT22;11731;48.592;8.858;2024-02-26T04:04:29;10.10;99.90
23124;DHT22;11731;48.592;8.858;2024-02-26T04:06:56;9.50;99.90
23124;DHT22;11731;48.592;8.858;2024-02-26T04:10:43;9.10;99.90
23124;DHT22;11731;48.592;8.858;2024-02-26T04:12:42;9.30;99.90
23124;DHT22;11731;48.592;8.858;2024-02-26T04:15:10;9.10;99.90
23124;DHT22;11731;48.592;8.858;2024-02-26T04:20:00;9.30;99.90
23124;DHT22;11731;48.592;8.858;2024-02-26T04:20:43;8.80;99.90
23124;DHT22;11731;48.592;8.858;2024-02-26T04:26:20;8.90;99.90
23124;DHT22;11731;48.592;8.858;2024-02-26T04:29:10;9.00;99.90
23124;DHT22;11731;48.592;8.858;2024-02-26T04:31:37;9.10;99.90
23124;DHT22;11731;48.592;8.858;2024-02-26T04:37:14;9.50;99.90
23124;DHT22;11731;48.592;8.858;2024-02-26T04:39:41;9.60;99.90
23124;DHT22;11731;48.592;8.858;2024-02-26T04:42:08;9.90;99.90
23124;DHT22;11731;48.592;8.858;2024-02-26T04:45:18;10.00;99.90
23124;DHT22;11731;48.592;8.858;2024-02-26T04:50:20;9.90;99.90
23124;DHT22;11731;48.592;8.858;2024-02-26T04:52:49;9.80;99.90
23124;DHT22;11731;48.592;8.858;2024-02-26T04:55:22;9.70;99.90
23124;DHT22;11731;48.592;8.858;2024-02-26T04:58:15;9.40;99.90
23124;DHT22;11731;48.592;8.858;2024-02-26T05:07:01;9.70;99.90
23124;DHT22;11731;48.592;8.858;2024-02-26T05:09:29;9.60;99.90
23124;DHT22;11731;48.592;8.858;2024-02-26T05:12:17;9.40;99.90
23124;DHT22;11731;48.592;8.858;2024-02-26T05:14:44;9.60;99.90
23124;DHT22;11731;48.592;8.858;2024-02-26T05:20:23;9.70;99.90
23124;DHT22;11731;48.592;8.858;2024-02-26T05:22:50;9.70;99.90
23124;DHT22;11731;48.592;8.858;2024-02-26T05:25:18;9.40;99.90
23124;DHT22;11731;48.592;8.858;2024-02-26T05:31:18;9.40;99.90
23124;DHT22;11731;48.592;8.858;2024-02-26T05:34:09;9.50;99.90
23124;DHT22;11731;48.592;8.858;2024-02-26T05:36:50;9.50;99.90
23124;DHT22;11731;48.592;8.858;2024-02-26T05:39:17;9.80;99.90
23124;DHT22;11731;48.592;8.858;2024-02-26T05:45:06;9.50;99.90
23124;DHT22;11731;48.592;8.858;2024-02-26T05:47:33;9.30;99.90
23124;DHT22;11731;48.592;8.858;2024-02-26T05:53:19;9.00;99.90
23124;DHT22;11731;48.592;8.858;2024-02-26T05:55:54;8.90;99.90
23124;DHT22;11731;48.592;8.858;2024-02-26T05:58:21;9.00;99.90
23124;DHT22;11731;48.592;8.858;2024-02-26T06:00:49;8.90;99.90
23124;DHT22;11731;48.592;8.858;2024-02-26T06:03:16;9.10;99.90
23124;DHT22;11731;48.592;8.858;2024-02-26T06:05:43;9.20;99.90
23124;DHT22;11731;48.592;8.858;2024-02-26T06:08:10;8.90;99.90
23124;DHT22;11731;48.592;8.858;2024-02-26T06:10:37;9.00;99.90
23124;DHT22;11731;48.592;8.858;2024-02-26T06:13:04;9.20;99.90
23124;DHT22;11731;48.592;8.858;2024-02-26T06:16:10;9.30;99.90
23124;DHT22;11731;48.592;8.858;2024-02-26T06:31:24;8.00;99.90
23124;DHT22;11731;48.592;8.858;2024-02-26T06:33:53;8.10;99.90
23124;DHT22;11731;48.592;8.858;2024-02-26T06:36:36;8.40;99.90
23124;DHT22;11731;48.592;8.858;2024-02-26T06:39:03;8.80;99.90
23124;DHT22;11731;48.592;8.858;2024-02-26T06:41:55;8.70;99.90
23124;DHT22;11731;48.592;8.858;2024-02-26T06:44:26;8.70;99.90
23124;DHT22;11731;48.592;8.858;2024-02-26T06:50:28;8.30;99.90
23124;DHT22;11731;48.592;8.858;2024-02-26T06:52:58;8.60;99.90
23124;DHT22;11731;48.592;8.858;2024-02-26T07:08:23;9.50;99.90
23124;DHT22;11731;48.592;8.858;2024-02-26T07:10:50;9.30;99.90
23124;DHT22;11731;48.592;8.858;2024-02-26T07:13:17;9.50;99.90
23124;DHT22;11731;48.592;8.858;2024-02-26T07:22:15;9.80;99.90
23124;DHT22;11731;48.592;8.858;2024-02-26T07:28:02;9.80;99.90
23124;DHT22;11731;48.592;8.858;2024-02-26T07:30:29;9.60;99.90
23124;DHT22;11731;48.592;8.858;2024-02-26T07:33:16;9.60;99.90
23124;DHT22;11731;48.592;8.858;2024-02-26T07:35:43;10.00;99.90
23124;DHT22;11731;48.592;8.858;2024-02-26T07:38:18;10.10;99.90
23124;DHT22;11731;48.592;8.858;2024-02-26T07:40:47;10.10;99.90
23124;DHT22;11731;48.592;8.858;2024-02-26T07:43:14;10.10;99.90
23124;DHT22;11731;48.592;8.858;2024-02-26T07:45:41;10.00;99.90
23124;DHT22;11731;48.592;8.858;2024-02-26T07:48:15;10.10;99.90
23124;DHT22;11731;48.592;8.858;2024-02-26T07:50:42;9.60;99.90
23124;DHT22;11731;48.592;8.858;2024-02-26T07:53:09;9.50;99.90
23124;DHT22;11731;48.592;8.858;2024-02-26T07:56:07;9.50;99.90
23124;DHT22;11731;48.592;8.858;2024-02-26T08:01:43;9.30;99.90
23124;DHT22;11731;48.592;8.858;2024-02-26T08:07:06;9.50;99.90
23124;DHT22;11731;48.592;8.858;2024-02-26T08:09:57;9.60;99.90
23124;DHT22;11731;48.592;8.858;2024-02-26T08:12:24;10.00;99.90
23124;DHT22;11731;48.592;8.858;2024-02-26T08:14:51;9.80;99.90
23124;DHT22;11731;48.592;8.858;2024-02-26T08:18:22;9.70;99.90
23124;DHT22;11731;48.592;8.858;2024-02-26T08:20:39;9.60;99.90
23124;DHT22;11731;48.592;8.858;2024-02-26T08:23:31;9.30;99.90
23124;DHT22;11731;48.592;8.858;2024-02-26T08:26:58;9.40;99.90
23124;DHT22;11731;48.592;8.858;2024-02-26T08:29:39;9.40;99.90
23124;DHT22;11731;48.592;8.858;2024-02-26T08:42:05;9.50;99.90
23124;DHT22;11731;48.592;8.858;2024-02-26T08:48:07;9.50;99.90
23124;DHT22;11731;48.592;8.858;2024-02-26T08:50:34;10.00;99.90
23124;DHT22;11731;48.592;8.858;2024-02-26T08:53:00;10.20;99.90
23124;DHT22;11731;48.592;8.858;2024-02-26T08:55:29;9.90;99.90
23124;DHT22;11731;48.592;8.858;2024-02-26T08:57:57;10.00;99.90
23124;DHT22;11731;48.592;8.858;2024-02-26T09:00:24;10.40;99.90
23124;DHT22;11731;48.592;8.858;2024-02-26T09:02:51;10.60;99.90
23124;DHT22;11731;48.592;8.858;2024-02-26T09:05:18;11.00;99.90
23124;DHT22;11731;48.592;8.858;2024-02-26T09:07:45;11.30;99.90
23124;DHT22;11731;48.592;8.858;2024-02-26T09:10:13;11.60;99.90
23124;DHT22;11731;48.592;8.858;2024-02-26T09:12:40;11.60;99.90
23124;DHT22;11731;48.592;8.858;2024-02-26T09:15:09;11.30;99.90
23124;DHT22;11731;48.592;8.858;2024-02-26T09:17:37;11.40;99.90
23124;DHT22;11731;48.592;8.858;2024-02-26T09:20:06;11.80;99.90
23124;DHT22;11731;48.592;8.858;2024-02-26T09:22:34;11.50;99.90
23124;DHT22;11731;48.592;8.858;2024-02-26T09:25:04;11.70;99.90
23124;DHT22;11731;48.592;8.858;2024-02-26T09:27:30;11.40;99.90
23124;DHT22;11731;48.592;8.858;2024-02-26T09:29:57;11.10;99.90
23124;DHT22;11731;48.592;8.858;2024-02-26T09:32:26;11.30;99.90
23124;DHT22;11731;48.592;8.858;2024-02-26T09:34:52;11.60;99.90
23124;DHT22;11731;48.592;8.858;2024-02-26T09:37:19;11.90;99.90
23124;DHT22;11731;48.592;8.858;2024-02-26T09:39:46;12.10;99.90
23124;DHT22;11731;48.592;8.858;2024-02-26T09:42:13;12.60;99.90
23124;DHT22;11731;48.592;8.858;2024-02-26T09:44:40;12.30;99.90
23124;DHT22;11731;48.592;8.858;2024-02-26T09:47:10;12.00;99.90
23124;DHT22;11731;48.592;8.858;2024-02-26T09:49:40;11.80;99.90
23124;DHT22;11731;48.592;8.858;2024-02-26T09:52:08;12.00;99.90
23124;DHT22;11731;48.592;8.858;2024-02-26T09:54:35;12.20;99.90
23124;DHT22;11731;48.592;8.858;2024-02-26T09:57:03;11.50;99.90
23124;DHT22;11731;48.592;8.858;2024-02-26T09:59:35;11.30;99.90
23124;DHT22;11731;48.592;8.858;2024-02-26T10:02:06;11.30;99.90
23124;DHT22;11731;48.592;8.858;2024-02-26T10:04:35;11.60;99.90
23124;DHT22;11731;48.592;8.858;2024-02-26T10:07:05;12.40;99.90
23124;DHT22;11731;48.592;8.858;2024-02-26T10:09:34;12.30;99.90
23124;DHT22;11731;48.592;8.858;2024-02-26T10:12:01;12.30;99.90
23124;DHT22;11731;48.592;8.858;2024-02-26T10:14:28;12.20;99.90
23124;DHT22;11731;48.592;8.858;2024-02-26T10:16:55;12.40;99.90
23124;DHT22;11731;48.592;8.858;2024-02-26T10:19:25;13.20;99.90
23124;DHT22;11731;48.592;8.858;2024-02-26T10:21:56;13.70;99.90
23124;DHT22;11731;48.592;8.858;2024-02-26T10:24:24;14.00;99.90
23124;DHT22;11731;48.592;8.858;2024-02-26T10:26:52;14.10;99.90
23124;DHT22;11731;48.592;8.858;2024-02-26T10:29:20;14.50;99.90
23124;DHT22;11731;48.592;8.858;2024-02-26T10:31:47;14.30;99.90
23124;DHT22;11731;48.592;8.858;2024-02-26T10:34:17;14.10;99.90
23124;DHT22;11731;48.592;8.858;2024-02-26T10:36:44;13.80;99.90
23124;DHT22;11731;48.592;8.858;2024-02-26T10:39:14;13.70;99.90
23124;DHT22;11731;48.592;8.858;2024-02-26T10:41:44;13.50;99.90
23124;DHT22;11731;48.592;8.858;2024-02-26T10:44:11;13.20;99.90
23124;DHT22;11731;48.592;8.858;2024-02-26T10:46:40;13.10;99.90
23124;DHT22;11731;48.592;8.858;2024-02-26T10:49:14;13.10;99.90
23124;DHT22;11731;48.592;8.858;2024-02-26T10:51:44;13.00;99.90
23124;DHT22;11731;48.592;8.858;2024-02-26T10:54:15;13.20;99.90
23124;DHT22;11731;48.592;8.858;2024-02-26T10:56:46;12.70;99.90
23124;DHT22;11731;48.592;8.858;2024-02-26T10:59:14;12.80;99.90
23124;DHT22;11731;48.592;8.858;2024-02-26T11:01:48;13.30;99.90
23124;DHT22;11731;48.592;8.858;2024-02-26T11:04:16;13.50;99.90
23124;DHT22;11731;48.592;8.858;2024-02-26T11:06:43;13.20;99.90
23124;DHT22;11731;48.592;8.858;2024-02-26T11:09:12;13.40;99.90
23124;DHT22;11731;48.592;8.858;2024-02-26T11:11:40;13.40;99.90
23124;DHT22;11731;48.592;8.858;2024-02-26T11:14:09;13.40;99.90
23124;DHT22;11731;48.592;8.858;2024-02-26T11:16:39;13.50;99.90
23124;DHT22;11731;48.592;8.858;2024-02-26T11:19:09;13.50;99.90
23124;DHT22;11731;48.592;8.858;2024-02-26T11:21:36;13.70;99.90
23124;DHT22;11731;48.592;8.858;2024-02-26T11:24:09;14.20;99.90
23124;DHT22;11731;48.592;8.858;2024-02-26T11:26:43;14.30;99.90
23124;DHT22;11731;48.592;8.858;2024-02-26T11:29:18;14.00;99.90
23124;DHT22;11731;48.592;8.858;2024-02-26T11:31:46;13.80;99.90
23124;DHT22;11731;48.592;8.858;2024-02-26T11:34:13;14.20;99.90
23124;DHT22;11731;48.592;8.858;2024-02-26T11:36:43;14.40;99.90
23124;DHT22;11731;48.592;8.858;2024-02-26T11:39:11;14.70;99.90
23124;DHT22;11731;48.592;8.858;2024-02-26T11:41:42;15.20;99.90
23124;DHT22;11731;48.592;8.858;2024-02-26T11:44:10;15.60;99.90
23124;DHT22;11731;48.592;8.858;2024-02-26T11:46:43;15.80;99.90
23124;DHT22;11731;48.592;8.858;2024-02-26T11:49:29;16.20;99.90
23124;DHT22;11731;48.592;8.858;2024-02-26T11:51:58;15.70;99.90
23124;DHT22;11731;48.592;8.858;2024-02-26T11:54:54;15.40;99.90
23124;DHT22;11731;48.592;8.858;2024-02-26T11:57:24;15.10;99.90
23124;DHT22;11731;48.592;8.858;2024-02-26T11:59:53;14.80;99.90
23124;DHT22;11731;48.592;8.858;2024-02-26T12:02:46;14.80;99.90
23124;DHT22;11731;48.592;8.858;2024-02-26T12:05:15;14.60;99.90
23124;DHT22;11731;48.592;8.858;2024-02-26T12:07:44;14.60;99.90
23124;DHT22;11731;48.592;8.858;2024-02-26T12:10:30;14.70;99.90
23124;DHT22;11731;48.592;8.858;2024-02-26T12:13:05;14.70;99.90
23124;DHT22;11731;48.592;8.858;2024-02-26T12:15:37;15.00;99.90
23124;DHT22;11731;48.592;8.858;2024-02-26T12:18:07;15.20;99.90
23124;DHT22;11731;48.592;8.858;2024-02-26T12:20:36;14.60;99.90
23124;DHT22;11731;48.592;8.858;2024-02-26T12:23:04;14.50;99.90
23124;DHT22;11731;48.592;8.858;2024-02-26T12:25:32;14.60;99.90
23124;DHT22;11731;48.592;8.858;2024-02-26T12:28:00;14.90;99.90
23124;DHT22;11731;48.592;8.858;2024-02-26T12:30:27;15.20;99.90
23124;DHT22;11731;48.592;8.858;2024-02-26T12:32:56;15.70;99.90
23124;DHT22;11731;48.592;8.858;2024-02-26T12:35:28;15.60;99.90
23124;DHT22;11731;48.592;8.858;2024-02-26T12:37:58;15.80;99.90
23124;DHT22;11731;48.592;8.858;2024-02-26T12:40:25;15.80;99.90
23124;DHT22;11731;48.592;8.858;2024-02-26T12:42:54;16.00;99.90
23124;DHT22;11731;48.592;8.858;2024-02-26T12:45:21;16.40;99.90
23124;DHT22;11731;48.592;8.858;2024-02-26T12:47:48;16.60;99.90
23124;DHT22;11731;48.592;8.858;2024-02-26T12:50:16;16.60;99.90
23124;DHT22;11731;48.592;8.858;2024-02-26T12:52:48;16.70;99.90
23124;DHT22;11731;48.592;8.858;2024-02-26T12:55:18;16.50;99.90
23124;DHT22;11731;48.592;8.858;2024-02-26T12:57:46;16.60;99.90
23124;DHT22;11731;48.592;8.858;2024-02-26T13:00:18;16.60;99.90
23124;DHT22;11731;48.592;8.858;2024-02-26T13:02:47;16.70;99.90
23124;DHT22;11731;48.592;8.858;2024-02-26T13:05:16;16.90;99.90
23124;DHT22;11731;48.592;8.858;2024-02-26T13:07:47;17.50;99.90
23124;DHT22;11731;48.592;8.858;2024-02-26T13:10:15;17.90;99.90
23124;DHT22;11731;48.592;8.858;2024-02-26T13:12:44;17.60;99.90
23124;DHT22;11731;48.592;8.858;2024-02-26T13:15:15;17.10;99.90
23124;DHT22;11731;48.592;8.858;2024-02-26T13:17:42;17.40;99.90
23124;DHT22;11731;48.592;8.858;2024-02-26T13:20:10;17.20;99.90
23124;DHT22;11731;48.592;8.858;2024-02-26T13:22:38;17.10;99.90
23124;DHT22;11731;48.592;8.858;2024-02-26T13:25:07;17.20;99.90
23124;DHT22;11731;48.592;8.858;2024-02-26T13:27:35;17.40;99.90
23124;DHT22;11731;48.592;8.858;2024-02-26T13:30:03;17.50;99.90
23124;DHT22;11731;48.592;8.858;2024-02-26T13:32:33;17.10;99.90
23124;DHT22;11731;48.592;8.858;2024-02-26T13:35:08;17.10;99.50
23124;DHT22;11731;48.592;8.858;2024-02-26T13:37:36;16.70;99.70
23124;DHT22;11731;48.592;8.858;2024-02-26T13:40:10;17.00;99.60
23124;DHT22;11731;48.592;8.858;2024-02-26T13:42:37;16.70;98.60
23124;DHT22;11731;48.592;8.858;2024-02-26T13:45:05;16.70;99.10
23124;DHT22;11731;48.592;8.858;2024-02-26T13:47:33;16.60;98.40
23124;DHT22;11731;48.592;8.858;2024-02-26T13:50:00;16.70;99.10
23124;DHT22;11731;48.592;8.858;2024-02-26T13:52:28;16.80;99.10
23124;DHT22;11731;48.592;8.858;2024-02-26T13:54:57;16.70;98.50
23124;DHT22;11731;48.592;8.858;2024-02-26T13:57:27;16.50;99.40
23124;DHT22;11731;48.592;8.858;2024-02-26T13:59:56;16.90;99.40
23124;DHT22;11731;48.592;8.858;2024-02-26T14:02:24;17.00;98.60
23124;DHT22;11731;48.592;8.858;2024-02-26T14:04:51;16.70;99.40
23124;DHT22;11731;48.592;8.858;2024-02-26T14:07:20;16.50;99.90
23124;DHT22;11731;48.592;8.858;2024-02-26T14:10:11;16.10;99.70
23124;DHT22;11731;48.592;8.858;2024-02-26T14:13:09;16.30;99.90
23124;DHT22;11731;48.592;8.858;2024-02-26T14:16:23;16.60;99.90
23124;DHT22;11731;48.592;8.858;2024-02-26T14:22:24;16.50;98.80
23124;DHT22;11731;48.592;8.858;2024-02-26T14:25:47;15.80;98.50
23124;DHT22;11731;48.592;8.858;2024-02-26T14:28:33;15.50;99.30
23124;DHT22;11731;48.592;8.858;2024-02-26T14:31:02;14.90;99.40
23124;DHT22;11731;48.592;8.858;2024-02-26T14:33:42;14.40;99.90
23124;DHT22;11731;48.592;8.858;2024-02-26T14:59:30;14.30;99.90
23124;DHT22;11731;48.592;8.858;2024-02-26T15:11:40;15.00;99.20
23124;DHT22;11731;48.592;8.858;2024-02-26T15:14:10;15.00;99.50
23124;DHT22;11731;48.592;8.858;2024-02-26T15:17:11;14.80;99.40
23124;DHT22;11731;48.592;8.858;2024-02-26T15:20:41;14.70;99.60
23124;DHT22;11731;48.592;8.858;2024-02-26T15:26:22;14.90;99.20
23124;DHT22;11731;48.592;8.858;2024-02-26T15:28:57;15.00;99.60
23124;DHT22;11731;48.592;8.858;2024-02-26T15:31:32;14.90;99.20
23124;DHT22;11731;48.592;8.858;2024-02-26T15:34:46;14.80;99.50
23124;DHT22;11731;48.592;8.858;2024-02-26T16:25:20;14.20;99.90
23124;DHT22;11731;48.592;8.858;2024-02-26T16:31:29;14.00;99.90
23124;DHT22;11731;48.592;8.858;2024-02-26T16:33:59;13.90;99.90
23124;DHT22;11731;48.592;8.858;2024-02-26T16:40:37;13.90;99.90
23124;DHT22;11731;48.592;8.858;2024-02-26T16:43:38;13.90;99.90
23124;DHT22;11731;48.592;8.858;2024-02-26T16:46:06;13.80;99.90
23124;DHT22;11731;48.592;8.858;2024-02-26T16:48:34;13.70;99.90
23124;DHT22;11731;48.592;8.858;2024-02-26T16:51:01;13.60;99.90
23124;DHT22;11731;48.592;8.858;2024-02-26T16:53:29;13.70;99.90
23124;DHT22;11731;48.592;8.858;2024-02-26T16:55:57;13.90;99.90
23124;DHT22;11731;48.592;8.858;2024-02-26T16:58:27;13.90;99.90
23124;DHT22;11731;48.592;8.858;2024-02-26T17:00:54;14.00;99.90
23124;DHT22;11731;48.592;8.858;2024-02-26T17:03:21;13.70;99.90
23124;DHT22;11731;48.592;8.858;2024-02-26T17:05:48;13.60;99.90
23124;DHT22;11731;48.592;8.858;2024-02-26T17:08:15;13.60;99.90
23124;DHT22;11731;48.592;8.858;2024-02-26T17:10:42;13.70;99.90
23124;DHT22;11731;48.592;8.858;2024-02-26T17:13:11;13.90;99.90
23124;DHT22;11731;48.592;8.858;2024-02-26T17:15:38;13.70;99.90
23124;DHT22;11731;48.592;8.858;2024-02-26T17:18:05;13.50;99.90
23124;DHT22;11731;48.592;8.858;2024-02-26T17:20:38;13.40;99.90
23124;DHT22;11731;48.592;8.858;2024-02-26T17:23:05;13.40;99.90
23124;DHT22;11731;48.592;8.858;2024-02-26T17:25:32;13.00;99.90
23124;DHT22;11731;48.592;8.858;2024-02-26T17:27:59;13.00;99.90
23124;DHT22;11731;48.592;8.858;2024-02-26T17:30:27;12.90;99.90
23124;DHT22;11731;48.592;8.858;2024-02-26T17:32:54;13.10;99.90
23124;DHT22;11731;48.592;8.858;2024-02-26T17:35:21;13.30;99.90
23124;DHT22;11731;48.592;8.858;2024-02-26T17:37:48;13.70;99.90
23124;DHT22;11731;48.592;8.858;2024-02-26T17:40:15;13.90;99.90
23124;DHT22;11731;48.592;8.858;2024-02-26T17:42:43;13.70;99.90
23124;DHT22;11731;48.592;8.858;2024-02-26T17:45:10;13.60;99.90
23124;DHT22;11731;48.592;8.858;2024-02-26T17:47:39;13.50;99.90
23124;DHT22;11731;48.592;8.858;2024-02-26T17:50:06;13.50;99.90
23124;DHT22;11731;48.592;8.858;2024-02-26T17:52:33;13.30;99.90
23124;DHT22;11731;48.592;8.858;2024-02-26T17:55:02;13.30;99.90
23124;DHT22;11731;48.592;8.858;2024-02-26T17:57:29;13.40;99.90
23124;DHT22;11731;48.592;8.858;2024-02-26T17:59:56;13.40;99.90
23124;DHT22;11731;48.592;8.858;2024-02-26T18:02:23;13.10;99.90
23124;DHT22;11731;48.592;8.858;2024-02-26T18:04:51;13.00;99.90
23124;DHT22;11731;48.592;8.858;2024-02-26T18:07:18;13.00;99.90
23124;DHT22;11731;48.592;8.858;2024-02-26T18:09:45;13.00;99.90
23124;DHT22;11731;48.592;8.858;2024-02-26T18:12:12;12.90;99.90
23124;DHT22;11731;48.592;8.858;2024-02-26T18:14:39;12.80;99.90
23124;DHT22;11731;48.592;8.858;2024-02-26T18:17:06;12.80;99.90
23124;DHT22;11731;48.592;8.858;2024-02-26T18:19:33;12.90;99.90
23124;DHT22;11731;48.592;8.858;2024-02-26T18:22:01;12.90;99.90
23124;DHT22;11731;48.592;8.858;2024-02-26T18:24:30;12.90;99.90
23124;DHT22;11731;48.592;8.858;2024-02-26T18:26:57;13.00;99.90
23124;DHT22;11731;48.592;8.858;2024-02-26T18:29:23;12.90;99.90
23124;DHT22;11731;48.592;8.858;2024-02-26T18:31:50;13.00;99.90
23124;DHT22;11731;48.592;8.858;2024-02-26T18:34:18;13.00;99.90
23124;DHT22;11731;48.592;8.858;2024-02-26T18:36:45;12.90;99.90
23124;DHT22;11731;48.592;8.858;2024-02-26T18:39:14;12.80;99.90
23124;DHT22;11731;48.592;8.858;2024-02-26T18:41:41;12.80;99.90
23124;DHT22;11731;48.592;8.858;2024-02-26T18:44:08;12.70;99.90
23124;DHT22;11731;48.592;8.858;2024-02-26T18:46:43;12.40;99.90
23124;DHT22;11731;48.592;8.858;2024-02-26T18:49:09;12.50;99.90
23124;DHT22;11731;48.592;8.858;2024-02-26T18:51:36;12.40;99.90
23124;DHT22;11731;48.592;8.858;2024-02-26T18:54:04;12.10;99.90
23124;DHT22;11731;48.592;8.858;2024-02-26T18:56:32;12.20;99.90
23124;DHT22;11731;48.592;8.858;2024-02-26T18:59:00;12.20;99.90
23124;DHT22;11731;48.592;8.858;2024-02-26T19:01:26;12.20;99.90
23124;DHT22;11731;48.592;8.858;2024-02-26T19:03:53;12.50;99.90
23124;DHT22;11731;48.592;8.858;2024-02-26T19:06:20;12.70;99.90
23124;DHT22;11731;48.592;8.858;2024-02-26T19:08:47;12.70;99.90
23124;DHT22;11731;48.592;8.858;2024-02-26T19:11:14;12.70;99.90
23124;DHT22;11731;48.592;8.858;2024-02-26T19:13:43;12.70;99.90
23124;DHT22;11731;48.592;8.858;2024-02-26T19:16:10;12.60;99.90
23124;DHT22;11731;48.592;8.858;2024-02-26T19:18:37;12.80;99.90
23124;DHT22;11731;48.592;8.858;2024-02-26T19:21:04;12.90;99.90
23124;DHT22;11731;48.592;8.858;2024-02-26T19:23:31;12.80;99.90
23124;DHT22;11731;48.592;8.858;2024-02-26T19:25:59;12.80;99.90
23124;DHT22;11731;48.592;8.858;2024-02-26T19:28:26;12.50;99.90
23124;DHT22;11731;48.592;8.858;2024-02-26T19:30:54;12.30;99.90
23124;DHT22;11731;48.592;8.858;2024-02-26T19:33:21;12.50;99.90
23124;DHT22;11731;48.592;8.858;2024-02-26T19:35:48;12.40;99.90
23124;DHT22;11731;48.592;8.858;2024-02-26T19:38:15;12.40;99.90
23124;DHT22;11731;48.592;8.858;2024-02-26T19:40:43;12.40;99.90
23124;DHT22;11731;48.592;8.858;2024-02-26T19:43:10;12.20;99.90
23124;DHT22;11731;48.592;8.858;2024-02-26T19:45:37;12.00;99.90
23124;DHT22;11731;48.592;8.858;2024-02-26T19:48:07;11.90;99.90
23124;DHT22;11731;48.592;8.858;2024-02-26T19:50:34;12.00;99.90
23124;DHT22;11731;48.592;8.858;2024-02-26T19:53:01;11.70;99.90
23124;DHT22;11731;48.592;8.858;2024-02-26T19:55:28;11.70;99.90
23124;DHT22;11731;48.592;8.858;2024-02-26T19:57:55;11.90;99.90